Airfield :
LOGIN :

Register | Disclaimer

   EN    FR    IT 

 










Legend :    VFR   Marginal VFR   IFR   Intensive IFR   Very Intensive IFR
Visi :
Ceiling :
>= 8 km
>= 3000ft
5 to 8 km
1000 to 3000 ft
1500m to 5 km
500 to 1000 ft
800 to 1500m
200 to 500 ft
< 800m
< 200 ft
Symbols :   Thunderstorms  Fog  Heavy snow  Heavy precipitations  Wind > 20 kt
SIGMETs :     Misc.  Thunderstorms  Icing  Turbulence  Mountain Waves  Volcanic Ashes






- Airport Elevation : 3368 ft


LSGC - Les Eplatures

CURRENT METAR :
  • 182250Z AUTO 04001KT CAVOK 15/14 Q1024

EXPIRED METARs :
  • 182220Z AUTO 00000KT CAVOK 16/15 Q1024
  • 182150Z AUTO 00000KT CAVOK 16/15 Q1024
  • 182120Z AUTO 00000KT CAVOK 17/15 Q1024
  • 182050Z AUTO VRB01KT CAVOK 17/15 Q1024
  • 182020Z AUTO VRB01KT CAVOK 18/16 Q1024
  • 181950Z AUTO VRB01KT 6000 NCD 19/16 Q1024
  • 181920Z AUTO VRB02KT CAVOK 20/16 Q1024
  • 181850Z AUTO VRB02KT CAVOK 21/16 Q1024
  • 181820Z AUTO 36003KT 310V040 CAVOK 22/15 Q1023

TAF TAF LSGC
Valid from the 18 at 15:00 until the 19 at 00:00 UTC


181425Z 1815/1824 35004KT 9999 FEW045



MET'MAP, your aeronautical weather chart ! - Copyright ORBIFLY December 2007 - Disclaimer

ORBIFLY MET'MAP TEAM :

Programming & Development : Alexandra Zaïnal
Original concept : Baudouin d'Aumeries
Technical & hardware support : Manuel Goepfert
Assistance : Marc-Olivier Méhu




SOURCES & CREDITS :

   NOAA